Time;durP1;ratioP1;P1;durP2;ratioP2;P2;SDS_P1;SDS_P2;PMS_P1;PMS_P2;Temp;Humidity;BMP_temperature;BMP_pressure;BME280_temperature;BME280_humidity;BME280_pressure;Samples;Min_cycle;Max_cycle;Signal;HPM_P1;HPM_P2
2021/07/23 00:00:47;;;;;;;;;;;20.60;66.30;;;;;;485049;245;2198;-46
2021/07/23 00:02:48;;;;;;;;;;;20.60;66.40;;;;;;484790;245;1360;-47
2021/07/23 00:04:50;;;;;;;;;;;20.60;66.30;;;;;;484496;245;1154;-47
2021/07/23 00:06:51;;;;;;;;;;;20.60;66.30;;;;;;484904;245;1354;-47
2021/07/23 00:08:52;;;;;;;;;;;20.60;66.40;;;;;;484704;245;1240;-46
2021/07/23 00:10:54;;;;;;;;;;;20.60;66.40;;;;;;485113;242;1325;-47
2021/07/23 00:12:55;;;;;;;;;;;20.60;66.50;;;;;;484980;245;1314;-46
2021/07/23 00:14:56;;;;;;;;;;;20.50;66.40;;;;;;485155;245;984;-46
2021/07/23 00:16:58;;;;;;;;;;;20.60;66.50;;;;;;484805;245;1228;-46
2021/07/23 00:18:59;;;;;;;;;;;20.50;66.40;;;;;;484907;245;1163;-47
2021/07/23 00:21:00;;;;;;;;;;;20.60;66.50;;;;;;485049;245;2151;-47
2021/07/23 00:23:01;;;;;;;;;;;20.60;66.50;;;;;;485073;245;1183;-47
2021/07/23 00:25:03;;;;;;;;;;;20.60;66.60;;;;;;484771;245;1046;-47
2021/07/23 00:27:04;;;;;;;;;;;20.50;66.60;;;;;;484752;245;1311;-46
2021/07/23 00:29:05;;;;;;;;;;;20.50;66.50;;;;;;484800;245;1040;-46
2021/07/23 00:31:07;;;;;;;;;;;20.50;66.50;;;;;;484594;245;2139;-47
2021/07/23 00:33:08;;;;;;;;;;;20.50;66.60;;;;;;484559;245;1166;-47
2021/07/23 00:35:09;;;;;;;;;;;20.60;66.50;;;;;;484643;245;1181;-46
2021/07/23 00:37:11;;;;;;;;;;;20.50;66.50;;;;;;484503;245;1200;-46
2021/07/23 00:39:12;;;;;;;;;;;20.60;66.50;;;;;;485171;245;1173;-46
2021/07/23 00:41:13;;;;;;;;;;;20.50;66.50;;;;;;484752;245;2129;-46
2021/07/23 00:43:15;;;;;;;;;;;20.60;66.50;;;;;;484843;245;1058;-47
2021/07/23 00:45:16;;;;;;;;;;;20.50;66.40;;;;;;485137;245;1128;-47
2021/07/23 00:47:17;;;;;;;;;;;20.60;66.50;;;;;;484720;245;1207;-46
2021/07/23 00:49:19;;;;;;;;;;;20.60;66.50;;;;;;484854;245;1145;-46
2021/07/23 00:51:20;;;;;;;;;;;20.50;66.50;;;;;;484446;245;1404;-47
2021/07/23 00:53:21;;;;;;;;;;;20.60;66.60;;;;;;484582;245;1153;-47
2021/07/23 00:55:23;;;;;;;;;;;20.60;66.50;;;;;;484604;245;1206;-47
2021/07/23 00:57:24;;;;;;;;;;;20.60;66.50;;;;;;484904;245;1461;-47
2021/07/23 00:59:26;;;;;;;;;;;20.60;66.40;;;;;;485149;245;1250;-46
2021/07/23 01:01:27;;;;;;;;;;;20.60;66.40;;;;;;484676;245;2108;-47
2021/07/23 01:03:28;;;;;;;;;;;20.60;66.40;;;;;;484874;245;1161;-46
2021/07/23 01:05:30;;;;;;;;;;;20.60;66.40;;;;;;484676;245;1218;-47
2021/07/23 01:07:31;;;;;;;;;;;20.60;66.40;;;;;;484707;245;1059;-46
2021/07/23 01:09:32;;;;;;;;;;;20.60;66.40;;;;;;484902;245;1034;-47
2021/07/23 01:11:35;;;;;;;;;;;20.60;66.40;;;;;;484884;245;1057;-47
2021/07/23 01:13:35;;;;;;;;;;;20.60;66.40;;;;;;484698;246;1992;-47
2021/07/23 01:15:37;;;;;;;;;;;20.60;66.40;;;;;;484864;245;1109;-46
2021/07/23 01:17:38;;;;;;;;;;;20.60;66.40;;;;;;484876;245;1077;-47
2021/07/23 01:19:40;;;;;;;;;;;20.60;66.50;;;;;;484911;242;2192;-46
2021/07/23 01:21:42;;;;;;;;;;;20.60;66.50;;;;;;485039;245;1109;-46
2021/07/23 01:23:43;;;;;;;;;;;20.50;66.40;;;;;;484764;245;1073;-47
2021/07/23 01:25:44;;;;;;;;;;;20.60;66.40;;;;;;485095;245;1083;-47
2021/07/23 01:27:50;;;;;;;;;;;20.60;66.40;;;;;;484746;245;1191;-47
2021/07/23 01:29:47;;;;;;;;;;;20.50;66.40;;;;;;484365;246;2227;-47
2021/07/23 01:31:49;;;;;;;;;;;20.60;66.50;;;;;;484675;245;1196;-47
2021/07/23 01:33:50;;;;;;;;;;;20.60;66.50;;;;;;484951;245;1114;-46
2021/07/23 01:35:51;;;;;;;;;;;20.50;66.50;;;;;;484658;245;1264;-46
2021/07/23 01:37:54;;;;;;;;;;;20.60;66.60;;;;;;484753;245;1200;-46
2021/07/23 01:39:54;;;;;;;;;;;20.60;66.50;;;;;;484767;245;2233;-47
2021/07/23 01:41:56;;;;;;;;;;;20.50;66.40;;;;;;484926;245;1324;-47
2021/07/23 01:43:57;;;;;;;;;;;20.60;66.50;;;;;;484707;245;1070;-47
2021/07/23 01:45:59;;;;;;;;;;;20.60;66.50;;;;;;484648;245;1128;-46
2021/07/23 01:48:00;;;;;;;;;;;20.60;66.50;;;;;;484922;245;2449;-47
2021/07/23 01:50:01;;;;;;;;;;;20.60;66.50;;;;;;484632;245;1200;-46
2021/07/23 01:52:03;;;;;;;;;;;20.60;66.50;;;;;;484581;245;1345;-47
2021/07/23 01:54:04;;;;;;;;;;;20.60;66.50;;;;;;484658;245;1280;-46
2021/07/23 01:56:05;;;;;;;;;;;20.60;66.40;;;;;;484646;245;1183;-46
2021/07/23 01:58:07;;;;;;;;;;;20.60;66.40;;;;;;484658;245;1165;-47
2021/07/23 02:00:08;;;;;;;;;;;20.60;66.50;;;;;;485135;245;2195;-47
2021/07/23 02:02:09;;;;;;;;;;;20.60;66.50;;;;;;484605;245;1242;-47
2021/07/23 02:04:11;;;;;;;;;;;20.60;66.50;;;;;;485179;245;1270;-47
2021/07/23 02:06:12;;;;;;;;;;;20.60;66.50;;;;;;484682;245;1310;-47
2021/07/23 02:08:13;;;;;;;;;;;20.50;66.50;;;;;;484770;245;1480;-47
2021/07/23 02:10:15;;;;;;;;;;;20.60;66.50;;;;;;484683;245;1105;-47
2021/07/23 02:12:16;;;;;;;;;;;20.50;66.50;;;;;;484676;245;1253;-47
2021/07/23 02:14:17;;;;;;;;;;;20.60;66.60;;;;;;484655;245;1107;-47
2021/07/23 02:16:19;;;;;;;;;;;20.50;66.60;;;;;;484593;245;1174;-46
2021/07/23 02:18:20;;;;;;;;;;;20.50;66.60;;;;;;484741;245;1048;-47
2021/07/23 02:20:21;;;;;;;;;;;20.50;66.60;;;;;;484602;245;2200;-47
2021/07/23 02:22:23;;;;;;;;;;;20.50;66.60;;;;;;484783;245;1170;-46
2021/07/23 02:24:24;;;;;;;;;;;20.60;66.50;;;;;;485126;245;1182;-47
2021/07/23 02:26:25;;;;;;;;;;;20.60;66.60;;;;;;485079;245;1287;-47
2021/07/23 02:28:26;;;;;;;;;;;20.50;66.50;;;;;;484795;245;1065;-46
2021/07/23 02:30:28;;;;;;;;;;;20.60;66.50;;;;;;485096;245;1213;-47
2021/07/23 02:32:29;;;;;;;;;;;20.50;66.40;;;;;;484768;245;1192;-47
2021/07/23 02:34:32;;;;;;;;;;;20.60;66.50;;;;;;484726;245;1074;-47
2021/07/23 02:36:32;;;;;;;;;;;20.60;66.50;;;;;;484501;246;2111;-47
2021/07/23 02:38:33;;;;;;;;;;;20.60;66.50;;;;;;484981;245;1047;-47
2021/07/23 02:40:34;;;;;;;;;;;20.50;66.50;;;;;;484617;245;2143;-47
2021/07/23 02:42:36;;;;;;;;;;;20.60;66.50;;;;;;484736;245;1152;-46
2021/07/23 02:44:37;;;;;;;;;;;20.60;66.50;;;;;;485161;245;1076;-46
2021/07/23 02:46:38;;;;;;;;;;;20.50;66.50;;;;;;484795;245;1169;-47
2021/07/23 02:48:40;;;;;;;;;;;20.60;66.50;;;;;;484962;245;1036;-47
2021/07/23 02:50:41;;;;;;;;;;;20.60;66.50;;;;;;484726;245;1184;-46
2021/07/23 02:52:42;;;;;;;;;;;20.50;66.40;;;;;;484829;245;1235;-47
2021/07/23 02:54:44;;;;;;;;;;;20.60;66.50;;;;;;485132;245;1141;-47
2021/07/23 02:56:45;;;;;;;;;;;20.50;66.50;;;;;;484927;245;1219;-46
2021/07/23 02:58:47;;;;;;;;;;;20.50;66.50;;;;;;484774;245;1063;-47
2021/07/23 03:00:48;;;;;;;;;;;20.60;66.60;;;;;;484545;245;2183;-46
2021/07/23 03:02:49;;;;;;;;;;;20.50;66.50;;;;;;485098;245;1208;-47
2021/07/23 03:04:50;;;;;;;;;;;20.50;66.40;;;;;;485177;245;1121;-46
2021/07/23 03:06:52;;;;;;;;;;;20.60;66.50;;;;;;484625;245;1269;-47
2021/07/23 03:08:53;;;;;;;;;;;20.60;66.40;;;;;;484855;245;1063;-47
2021/07/23 03:10:54;;;;;;;;;;;20.60;66.40;;;;;;485066;245;1387;-47
2021/07/23 03:12:56;;;;;;;;;;;20.60;66.40;;;;;;485120;245;1891;-46
2021/07/23 03:14:57;;;;;;;;;;;20.60;66.50;;;;;;484700;245;1053;-46
2021/07/23 03:16:59;;;;;;;;;;;20.60;66.50;;;;;;484649;245;1755;-47
2021/07/23 03:19:00;;;;;;;;;;;20.50;66.40;;;;;;484725;245;1038;-47
2021/07/23 03:21:01;;;;;;;;;;;20.60;66.50;;;;;;484895;242;2188;-47
2021/07/23 03:23:03;;;;;;;;;;;20.50;66.50;;;;;;484909;245;1162;-47
2021/07/23 03:25:04;;;;;;;;;;;20.60;66.60;;;;;;485162;245;1030;-46
2021/07/23 03:27:05;;;;;;;;;;;20.50;66.60;;;;;;484918;245;1199;-46
2021/07/23 03:29:07;;;;;;;;;;;20.50;66.50;;;;;;485133;245;1366;-47
2021/07/23 03:31:08;;;;;;;;;;;20.60;66.50;;;;;;485102;245;1052;-46
2021/07/23 03:33:09;;;;;;;;;;;20.60;66.60;;;;;;484655;245;1245;-46
2021/07/23 03:35:11;;;;;;;;;;;20.60;66.60;;;;;;484930;245;1043;-46
2021/07/23 03:37:12;;;;;;;;;;;20.60;66.60;;;;;;484462;245;1403;-47
2021/07/23 03:39:13;;;;;;;;;;;20.60;66.50;;;;;;484717;245;1054;-46
2021/07/23 03:41:14;;;;;;;;;;;20.50;66.50;;;;;;484595;245;2168;-46
2021/07/23 03:43:16;;;;;;;;;;;20.50;66.50;;;;;;484725;245;1390;-46
2021/07/23 03:45:17;;;;;;;;;;;20.50;66.50;;;;;;485088;245;1031;-47
2021/07/23 03:47:18;;;;;;;;;;;20.60;66.60;;;;;;485024;245;1155;-47
2021/07/23 03:49:20;;;;;;;;;;;20.60;66.60;;;;;;484581;245;1304;-47
2021/07/23 03:51:21;;;;;;;;;;;20.50;66.60;;;;;;484512;245;1232;-46
2021/07/23 03:53:22;;;;;;;;;;;20.50;66.60;;;;;;484861;245;1230;-46
2021/07/23 03:55:24;;;;;;;;;;;20.60;66.60;;;;;;484640;245;1214;-47
2021/07/23 03:57:25;;;;;;;;;;;20.60;66.60;;;;;;484669;245;1333;-47
2021/07/23 03:59:26;;;;;;;;;;;20.50;66.50;;;;;;485098;245;1059;-47
2021/07/23 04:01:28;;;;;;;;;;;20.60;66.50;;;;;;484808;245;2136;-46
2021/07/23 04:03:29;;;;;;;;;;;20.60;66.50;;;;;;484825;245;1077;-46
2021/07/23 04:05:30;;;;;;;;;;;20.60;66.50;;;;;;484685;245;1073;-46
2021/07/23 04:07:32;;;;;;;;;;;20.60;66.40;;;;;;484571;245;1292;-47
2021/07/23 04:09:33;;;;;;;;;;;20.60;66.50;;;;;;484744;245;1583;-47
2021/07/23 04:11:37;;;;;;;;;;;20.60;66.50;;;;;;484559;245;1164;-46
2021/07/23 04:13:36;;;;;;;;;;;20.60;66.50;;;;;;484918;246;2167;-46
2021/07/23 04:15:37;;;;;;;;;;;20.50;66.40;;;;;;484649;245;1084;-46
2021/07/23 04:17:38;;;;;;;;;;;20.50;66.50;;;;;;484623;245;1197;-46
2021/07/23 04:19:40;;;;;;;;;;;20.60;66.50;;;;;;484762;245;1148;-46
2021/07/23 04:21:41;;;;;;;;;;;20.60;66.50;;;;;;484698;245;2144;-46
2021/07/23 04:23:42;;;;;;;;;;;20.60;66.60;;;;;;485097;245;1061;-46
2021/07/23 04:25:44;;;;;;;;;;;20.60;66.60;;;;;;484817;245;1099;-47
2021/07/23 04:27:45;;;;;;;;;;;20.60;66.60;;;;;;484875;245;1377;-46
2021/07/23 04:29:47;;;;;;;;;;;20.50;66.50;;;;;;484559;245;1072;-47
2021/07/23 04:31:48;;;;;;;;;;;20.50;66.60;;;;;;484429;245;2264;-47
2021/07/23 04:33:49;;;;;;;;;;;20.60;66.60;;;;;;485045;245;1239;-47
2021/07/23 04:35:50;;;;;;;;;;;20.60;66.60;;;;;;484635;245;1099;-46
2021/07/23 04:37:51;;;;;;;;;;;20.50;66.50;;;;;;484716;245;1160;-46
2021/07/23 04:39:53;;;;;;;;;;;20.60;66.60;;;;;;484522;245;1106;-47
2021/07/23 04:41:54;;;;;;;;;;;20.60;66.60;;;;;;484363;245;2180;-47
2021/07/23 04:43:55;;;;;;;;;;;20.60;66.60;;;;;;484500;245;1064;-47
2021/07/23 04:45:57;;;;;;;;;;;20.50;66.60;;;;;;484529;245;1295;-46
2021/07/23 04:47:58;;;;;;;;;;;20.60;66.60;;;;;;484563;245;1202;-46
2021/07/23 04:50:00;;;;;;;;;;;20.50;66.50;;;;;;484740;245;1054;-46
2021/07/23 04:52:01;;;;;;;;;;;20.60;66.60;;;;;;484407;245;2475;-47
2021/07/23 04:54:03;;;;;;;;;;;20.50;66.50;;;;;;484785;245;1065;-47
2021/07/23 04:56:05;;;;;;;;;;;20.60;66.50;;;;;;484694;245;1212;-47
2021/07/23 04:58:06;;;;;;;;;;;20.60;66.50;;;;;;484393;246;1759;-46
2021/07/23 05:00:07;;;;;;;;;;;20.50;66.50;;;;;;484577;245;1040;-47
2021/07/23 05:02:09;;;;;;;;;;;20.60;66.50;;;;;;484286;245;2194;-47
2021/07/23 05:04:10;;;;;;;;;;;20.60;66.50;;;;;;484454;245;1410;-47
2021/07/23 05:06:11;;;;;;;;;;;20.60;66.50;;;;;;484374;245;1504;-47
2021/07/23 05:08:13;;;;;;;;;;;20.50;66.40;;;;;;484429;245;1156;-47
2021/07/23 05:10:14;;;;;;;;;;;20.60;66.50;;;;;;484826;245;1236;-47
2021/07/23 05:12:15;;;;;;;;;;;20.60;66.50;;;;;;484429;245;1602;-47
2021/07/23 05:14:16;;;;;;;;;;;20.50;66.40;;;;;;484531;245;1222;-47
2021/07/23 05:16:18;;;;;;;;;;;20.50;66.50;;;;;;484516;245;1355;-46
2021/07/23 05:18:19;;;;;;;;;;;20.50;66.40;;;;;;484485;245;1060;-47
2021/07/23 05:20:20;;;;;;;;;;;20.60;66.40;;;;;;484381;245;1135;-47
2021/07/23 05:22:22;;;;;;;;;;;20.50;66.40;;;;;;484591;245;2187;-47
2021/07/23 05:24:23;;;;;;;;;;;20.60;66.50;;;;;;484535;245;1093;-47
2021/07/23 05:26:25;;;;;;;;;;;20.50;66.50;;;;;;484236;245;1461;-46
2021/07/23 05:28:26;;;;;;;;;;;20.60;66.60;;;;;;484546;245;1701;-46
2021/07/23 05:30:27;;;;;;;;;;;20.60;66.50;;;;;;484522;245;1275;-46
2021/07/23 05:32:28;;;;;;;;;;;20.50;66.50;;;;;;484406;245;1289;-47
2021/07/23 05:34:30;;;;;;;;;;;20.50;66.50;;;;;;484485;245;1093;-47
2021/07/23 05:36:31;;;;;;;;;;;20.60;66.50;;;;;;484536;245;1532;-47
2021/07/23 05:38:32;;;;;;;;;;;20.60;66.60;;;;;;484422;245;1325;-46
2021/07/23 05:40:34;;;;;;;;;;;20.60;66.60;;;;;;484529;245;1314;-46
2021/07/23 05:42:35;;;;;;;;;;;20.60;66.60;;;;;;484594;245;2192;-46
2021/07/23 05:44:36;;;;;;;;;;;20.50;66.60;;;;;;484523;245;1075;-47
2021/07/23 05:46:38;;;;;;;;;;;20.60;66.70;;;;;;484374;245;1257;-47
2021/07/23 05:48:39;;;;;;;;;;;20.60;66.60;;;;;;484389;245;1258;-46
2021/07/23 05:50:40;;;;;;;;;;;20.50;66.60;;;;;;484306;245;1122;-47
2021/07/23 05:52:41;;;;;;;;;;;20.50;66.60;;;;;;484200;245;1231;-46
2021/07/23 05:54:43;;;;;;;;;;;20.60;66.60;;;;;;484292;245;1109;-47
2021/07/23 05:56:44;;;;;;;;;;;20.50;66.60;;;;;;484245;245;1358;-46
2021/07/23 05:58:46;;;;;;;;;;;20.60;66.60;;;;;;484403;245;1230;-47
2021/07/23 06:00:47;;;;;;;;;;;20.60;66.60;;;;;;484441;245;1179;-46
2021/07/23 06:02:48;;;;;;;;;;;20.60;66.60;;;;;;484403;245;2207;-47
2021/07/23 06:04:49;;;;;;;;;;;20.60;66.50;;;;;;484242;245;1127;-46
2021/07/23 06:06:51;;;;;;;;;;;20.60;66.50;;;;;;484142;245;1550;-47
2021/07/23 06:08:52;;;;;;;;;;;20.50;66.50;;;;;;484285;245;1193;-47
2021/07/23 06:10:53;;;;;;;;;;;20.60;66.50;;;;;;484245;245;1309;-46
2021/07/23 06:12:55;;;;;;;;;;;20.50;66.50;;;;;;484333;245;1722;-47
2021/07/23 06:14:56;;;;;;;;;;;20.60;66.50;;;;;;484208;245;1131;-46
2021/07/23 06:16:58;;;;;;;;;;;20.60;66.50;;;;;;484317;245;1567;-47
2021/07/23 06:18:59;;;;;;;;;;;20.50;66.50;;;;;;484163;245;1840;-47
2021/07/23 06:21:00;;;;;;;;;;;20.60;66.50;;;;;;484462;245;1217;-47
2021/07/23 06:23:01;;;;;;;;;;;20.60;66.50;;;;;;484233;245;2192;-46
2021/07/23 06:25:03;;;;;;;;;;;20.60;66.50;;;;;;484392;245;1061;-47
2021/07/23 06:27:04;;;;;;;;;;;20.60;66.50;;;;;;484139;245;1170;-47
2021/07/23 06:29:05;;;;;;;;;;;20.60;66.50;;;;;;484238;245;1246;-47
2021/07/23 06:31:07;;;;;;;;;;;20.60;66.60;;;;;;484244;245;1283;-47
2021/07/23 06:33:08;;;;;;;;;;;20.60;66.60;;;;;;484273;245;1277;-47
2021/07/23 06:35:09;;;;;;;;;;;20.60;66.60;;;;;;484569;245;1279;-47
2021/07/23 06:37:10;;;;;;;;;;;20.60;66.60;;;;;;484085;245;1222;-46
2021/07/23 06:39:12;;;;;;;;;;;20.60;66.60;;;;;;484131;245;1185;-47
2021/07/23 06:41:13;;;;;;;;;;;20.60;66.60;;;;;;483971;245;1181;-46
2021/07/23 06:43:15;;;;;;;;;;;20.60;66.60;;;;;;484056;245;2124;-47
2021/07/23 06:45:16;;;;;;;;;;;20.50;66.60;;;;;;484101;245;1288;-46
2021/07/23 06:47:17;;;;;;;;;;;20.60;66.60;;;;;;484075;245;1301;-46
2021/07/23 06:49:19;;;;;;;;;;;20.50;66.50;;;;;;484139;245;1167;-46
2021/07/23 06:51:20;;;;;;;;;;;20.50;66.60;;;;;;484044;245;1308;-47
2021/07/23 06:53:21;;;;;;;;;;;20.50;66.50;;;;;;483991;245;1199;-47
2021/07/23 06:55:23;;;;;;;;;;;20.60;66.60;;;;;;484238;245;1134;-46
2021/07/23 06:57:24;;;;;;;;;;;20.60;66.60;;;;;;484022;245;1142;-47
2021/07/23 06:59:25;;;;;;;;;;;20.60;66.60;;;;;;484147;245;1202;-46
2021/07/23 07:01:27;;;;;;;;;;;20.60;66.60;;;;;;483958;245;1376;-47
2021/07/23 07:03:28;;;;;;;;;;;20.50;66.50;;;;;;484066;245;2128;-46
2021/07/23 07:05:29;;;;;;;;;;;20.60;66.60;;;;;;484093;245;1089;-46
2021/07/23 07:07:31;;;;;;;;;;;20.60;66.70;;;;;;483869;245;1204;-46
2021/07/23 07:09:32;;;;;;;;;;;20.60;66.70;;;;;;483943;245;1218;-47
2021/07/23 07:11:34;;;;;;;;;;;20.60;66.60;;;;;;483743;245;1354;-47
2021/07/23 07:13:35;;;;;;;;;;;20.60;66.60;;;;;;483875;245;1070;-46
2021/07/23 07:15:36;;;;;;;;;;;20.60;66.60;;;;;;483897;245;1216;-46
2021/07/23 07:17:38;;;;;;;;;;;20.50;66.50;;;;;;484018;245;1242;-46
2021/07/23 07:19:39;;;;;;;;;;;20.60;66.50;;;;;;484044;245;1087;-46
2021/07/23 07:21:47;;;;;;;;;;;20.60;66.50;;;;;;483877;245;1524;-47
2021/07/23 07:23:42;;;;;;;;;;;20.60;66.50;;;;;;483432;246;2377;-45
2021/07/23 07:25:43;;;;;;;;;;;20.60;66.50;;;;;;483796;245;1357;-47
2021/07/23 07:27:45;;;;;;;;;;;20.60;66.50;;;;;;483837;245;1232;-46
2021/07/23 07:29:46;;;;;;;;;;;20.60;66.50;;;;;;483984;245;1391;-46
2021/07/23 07:31:47;;;;;;;;;;;20.60;66.50;;;;;;483304;245;1352;-47
2021/07/23 07:33:49;;;;;;;;;;;20.60;66.50;;;;;;483668;245;1222;-47
2021/07/23 07:35:50;;;;;;;;;;;20.50;66.40;;;;;;483508;245;1293;-47
2021/07/23 07:37:51;;;;;;;;;;;20.60;66.40;;;;;;483712;245;1302;-46
2021/07/23 07:39:53;;;;;;;;;;;20.60;66.40;;;;;;483766;245;1230;-46
2021/07/23 07:41:54;;;;;;;;;;;20.60;66.40;;;;;;484055;245;2145;-47
2021/07/23 07:43:55;;;;;;;;;;;20.60;66.40;;;;;;482642;246;1101;-46
2021/07/23 07:45:57;;;;;;;;;;;20.60;66.40;;;;;;487249;243;1200;-47
2021/07/23 07:47:58;;;;;;;;;;;20.60;66.50;;;;;;484064;246;1082;-47
2021/07/23 07:49:59;;;;;;;;;;;20.50;66.40;;;;;;483773;246;1087;-47
2021/07/23 07:52:01;;;;;;;;;;;20.50;66.50;;;;;;483716;245;1177;-47
2021/07/23 07:54:02;;;;;;;;;;;20.60;66.50;;;;;;483691;246;1209;-46
2021/07/23 07:56:03;;;;;;;;;;;20.60;66.50;;;;;;483484;246;1204;-46
2021/07/23 07:58:04;;;;;;;;;;;20.60;66.50;;;;;;484510;245;986;-47
2021/07/23 08:00:06;;;;;;;;;;;20.60;66.50;;;;;;484548;245;966;-46
2021/07/23 08:02:07;;;;;;;;;;;20.60;66.50;;;;;;484374;245;2207;-47
2021/07/23 08:04:09;;;;;;;;;;;20.60;66.50;;;;;;483849;246;1129;-47
2021/07/23 08:06:18;;;;;;;;;;;20.60;66.50;;;;;;483676;245;1330;-47
2021/07/23 08:08:12;;;;;;;;;;;20.60;66.40;;;;;;483616;246;2136;-46
2021/07/23 08:10:15;;;;;;;;;;;20.60;66.40;;;;;;483760;246;1244;-47
2021/07/23 08:12:15;;;;;;;;;;;20.60;66.50;;;;;;483971;246;2089;-47
2021/07/23 08:14:17;;;;;;;;;;;20.60;66.50;;;;;;484615;245;1063;-46
2021/07/23 08:16:18;;;;;;;;;;;20.60;66.50;;;;;;484442;245;1272;-47
2021/07/23 08:18:19;;;;;;;;;;;20.60;66.40;;;;;;483965;246;1133;-46
2021/07/23 08:20:20;;;;;;;;;;;20.60;66.40;;;;;;483924;246;1010;-46
2021/07/23 08:22:22;;;;;;;;;;;20.60;66.30;;;;;;484418;246;2172;-47
2021/07/23 08:24:23;;;;;;;;;;;20.60;66.30;;;;;;484333;245;1119;-47
2021/07/23 08:26:25;;;;;;;;;;;20.60;66.30;;;;;;483582;245;1342;-47
2021/07/23 08:28:26;;;;;;;;;;;20.60;66.40;;;;;;483624;245;1198;-47
2021/07/23 08:30:27;;;;;;;;;;;20.60;66.50;;;;;;483583;245;1263;-46
2021/07/23 08:32:31;;;;;;;;;;;20.60;66.40;;;;;;483964;245;1169;-47
2021/07/23 08:34:30;;;;;;;;;;;20.60;66.50;;;;;;484554;246;2057;-46
2021/07/23 08:36:32;;;;;;;;;;;20.60;66.40;;;;;;484547;245;1155;-46
2021/07/23 08:38:33;;;;;;;;;;;20.60;66.40;;;;;;484232;245;1065;-47
2021/07/23 08:40:34;;;;;;;;;;;20.60;66.40;;;;;;484230;245;1066;-47
2021/07/23 08:42:36;;;;;;;;;;;20.60;66.40;;;;;;484560;245;2207;-47
2021/07/23 08:44:37;;;;;;;;;;;20.60;66.40;;;;;;484287;245;923;-47
2021/07/23 08:46:38;;;;;;;;;;;20.60;66.30;;;;;;484158;245;1266;-47
2021/07/23 08:48:40;;;;;;;;;;;20.60;66.30;;;;;;484653;245;870;-46
2021/07/23 08:50:41;;;;;;;;;;;20.60;66.50;;;;;;484633;245;1207;-47
2021/07/23 08:52:42;;;;;;;;;;;20.60;66.50;;;;;;484076;245;1610;-47
2021/07/23 08:54:44;;;;;;;;;;;20.60;66.40;;;;;;484266;245;1174;-47
2021/07/23 08:56:45;;;;;;;;;;;20.60;66.40;;;;;;484123;245;1136;-47
2021/07/23 08:58:46;;;;;;;;;;;20.60;66.30;;;;;;484636;245;1258;-46
2021/07/23 09:00:47;;;;;;;;;;;20.60;66.30;;;;;;484636;245;1162;-46
2021/07/23 09:02:49;;;;;;;;;;;20.60;66.40;;;;;;484644;245;2203;-47
2021/07/23 09:04:52;;;;;;;;;;;20.60;66.40;;;;;;484658;245;852;-46
2021/07/23 09:06:52;;;;;;;;;;;20.60;66.40;;;;;;484632;245;2152;-47
2021/07/23 09:08:54;;;;;;;;;;;20.60;66.40;;;;;;484262;245;918;-47
2021/07/23 09:10:54;;;;;;;;;;;20.60;66.40;;;;;;484183;245;1149;-46
2021/07/23 09:12:57;;;;;;;;;;;20.60;66.40;;;;;;484603;245;1168;-47
2021/07/23 09:14:57;;;;;;;;;;;20.60;66.50;;;;;;484684;245;2107;-47
2021/07/23 09:16:58;;;;;;;;;;;20.60;66.40;;;;;;484581;245;1195;-46
2021/07/23 09:19:00;;;;;;;;;;;20.60;66.40;;;;;;484095;245;997;-46
2021/07/23 09:21:01;;;;;;;;;;;20.60;66.40;;;;;;484071;245;1204;-47
2021/07/23 09:23:02;;;;;;;;;;;20.60;66.30;;;;;;483618;245;2137;-47
2021/07/23 09:25:04;;;;;;;;;;;20.60;66.30;;;;;;483662;245;1308;-47
2021/07/23 09:27:05;;;;;;;;;;;20.60;66.40;;;;;;483323;245;1393;-47
2021/07/23 09:29:06;;;;;;;;;;;20.60;66.30;;;;;;483367;245;1216;-47
2021/07/23 09:31:08;;;;;;;;;;;20.60;66.40;;;;;;483512;245;1141;-46
2021/07/23 09:33:09;;;;;;;;;;;20.60;66.50;;;;;;483904;245;1128;-46
2021/07/23 09:35:11;;;;;;;;;;;20.60;66.40;;;;;;483548;245;1175;-46
2021/07/23 09:37:12;;;;;;;;;;;20.60;66.30;;;;;;483615;245;1192;-46
2021/07/23 09:39:15;;;;;;;;;;;20.60;66.40;;;;;;483662;245;1167;-47
2021/07/23 09:41:15;;;;;;;;;;;20.60;66.30;;;;;;483533;245;2150;-46
2021/07/23 09:43:16;;;;;;;;;;;20.60;66.40;;;;;;483686;245;2211;-46
2021/07/23 09:45:17;;;;;;;;;;;20.60;66.40;;;;;;484072;245;1137;-47
2021/07/23 09:47:19;;;;;;;;;;;20.60;66.40;;;;;;483828;245;1288;-46
2021/07/23 09:49:20;;;;;;;;;;;20.60;66.40;;;;;;484008;245;1125;-46
2021/07/23 09:51:21;;;;;;;;;;;20.60;66.40;;;;;;483647;245;1242;-47
2021/07/23 09:53:23;;;;;;;;;;;20.60;66.50;;;;;;483824;245;1190;-47
2021/07/23 09:55:24;;;;;;;;;;;20.60;66.50;;;;;;483782;245;1160;-47
2021/07/23 09:57:25;;;;;;;;;;;20.60;66.40;;;;;;483583;245;1229;-46
2021/07/23 09:59:28;;;;;;;;;;;20.60;66.30;;;;;;483895;245;1103;-47
2021/07/23 10:01:28;;;;;;;;;;;20.60;66.30;;;;;;483663;246;2346;-47
2021/07/23 10:03:30;;;;;;;;;;;20.60;66.30;;;;;;483824;245;2136;-46
2021/07/23 10:05:34;;;;;;;;;;;20.70;66.30;;;;;;483806;245;1107;-47
2021/07/23 10:07:32;;;;;;;;;;;20.60;66.30;;;;;;483483;246;2357;-47
2021/07/23 10:09:34;;;;;;;;;;;20.60;66.30;;;;;;483856;245;1167;-46
2021/07/23 10:11:35;;;;;;;;;;;20.60;66.30;;;;;;483398;245;1335;-47
2021/07/23 10:13:37;;;;;;;;;;;20.60;66.40;;;;;;483573;245;1241;-47
2021/07/23 10:15:38;;;;;;;;;;;20.60;66.30;;;;;;483746;245;1354;-46
2021/07/23 10:17:39;;;;;;;;;;;20.70;66.30;;;;;;483800;245;1535;-46
2021/07/23 10:19:41;;;;;;;;;;;20.70;66.30;;;;;;483782;245;1127;-46
2021/07/23 10:21:42;;;;;;;;;;;20.60;66.20;;;;;;484015;245;1692;-47
2021/07/23 10:23:43;;;;;;;;;;;20.70;66.20;;;;;;484705;245;2203;-46
2021/07/23 10:25:45;;;;;;;;;;;20.70;66.20;;;;;;484241;245;1158;-46
2021/07/23 10:27:46;;;;;;;;;;;20.70;66.20;;;;;;484718;245;1085;-46
2021/07/23 10:29:47;;;;;;;;;;;20.70;66.30;;;;;;484714;245;1381;-47
2021/07/23 10:31:48;;;;;;;;;;;20.60;66.30;;;;;;484553;245;1072;-47
2021/07/23 10:33:50;;;;;;;;;;;20.60;66.30;;;;;;484661;245;1083;-46
2021/07/23 10:35:51;;;;;;;;;;;20.60;66.30;;;;;;484642;245;1132;-46
2021/07/23 10:37:52;;;;;;;;;;;20.60;66.30;;;;;;484159;245;1193;-46
2021/07/23 10:39:54;;;;;;;;;;;20.60;66.30;;;;;;484668;245;948;-47
2021/07/23 10:41:55;;;;;;;;;;;20.60;66.40;;;;;;484055;245;1271;-47
2021/07/23 10:43:56;;;;;;;;;;;20.60;66.30;;;;;;484656;245;2200;-46
2021/07/23 10:45:58;;;;;;;;;;;20.60;66.30;;;;;;484620;245;1108;-47
2021/07/23 10:47:59;;;;;;;;;;;20.60;66.30;;;;;;484673;245;1154;-46
2021/07/23 10:50:00;;;;;;;;;;;20.60;66.50;;;;;;484240;245;942;-47
2021/07/23 10:52:02;;;;;;;;;;;20.60;66.30;;;;;;484096;245;1202;-46
2021/07/23 10:54:03;;;;;;;;;;;20.60;66.30;;;;;;484194;245;943;-47
2021/07/23 10:56:04;;;;;;;;;;;20.60;66.30;;;;;;484517;245;1239;-47
2021/07/23 10:58:07;;;;;;;;;;;20.60;66.50;;;;;;484756;245;862;-47
2021/07/23 11:00:07;;;;;;;;;;;20.60;66.40;;;;;;484714;246;2132;-47
2021/07/23 11:02:08;;;;;;;;;;;20.60;66.40;;;;;;484226;245;1035;-47
2021/07/23 11:04:10;;;;;;;;;;;20.60;66.40;;;;;;484288;245;2192;-46
2021/07/23 11:06:11;;;;;;;;;;;20.60;66.30;;;;;;484559;245;1344;-47
2021/07/23 11:08:12;;;;;;;;;;;20.60;66.30;;;;;;484179;245;846;-46
2021/07/23 11:10:14;;;;;;;;;;;20.60;66.30;;;;;;484187;245;1246;-47
2021/07/23 11:12:15;;;;;;;;;;;20.60;66.30;;;;;;484113;245;1153;-46
2021/07/23 11:14:16;;;;;;;;;;;20.60;66.30;;;;;;484629;245;856;-47
2021/07/23 11:16:18;;;;;;;;;;;20.60;66.30;;;;;;484158;245;1113;-47
2021/07/23 11:18:19;;;;;;;;;;;20.60;66.30;;;;;;484618;245;1058;-46
2021/07/23 11:20:20;;;;;;;;;;;20.60;66.40;;;;;;484521;245;897;-46
2021/07/23 11:22:21;;;;;;;;;;;20.60;66.40;;;;;;484064;245;1219;-46
2021/07/23 11:24:23;;;;;;;;;;;20.60;66.40;;;;;;484138;245;2184;-46
2021/07/23 11:26:25;;;;;;;;;;;20.60;66.40;;;;;;484357;245;1098;-46
2021/07/23 11:28:26;;;;;;;;;;;20.60;66.40;;;;;;484631;245;859;-47
2021/07/23 11:30:27;;;;;;;;;;;20.60;66.30;;;;;;484220;245;891;-46
2021/07/23 11:32:28;;;;;;;;;;;20.60;66.40;;;;;;484565;245;1088;-47
2021/07/23 11:34:36;;;;;;;;;;;20.60;66.30;;;;;;484204;245;832;-47
2021/07/23 11:36:31;;;;;;;;;;;20.60;66.20;;;;;;483917;246;2260;-47
2021/07/23 11:38:33;;;;;;;;;;;20.60;66.30;;;;;;484073;245;925;-47
2021/07/23 11:40:33;;;;;;;;;;;20.60;66.30;;;;;;484594;246;2166;-47
2021/07/23 11:42:35;;;;;;;;;;;20.60;66.30;;;;;;484139;245;1291;-46
2021/07/23 11:44:36;;;;;;;;;;;20.60;66.30;;;;;;484601;245;2203;-47
2021/07/23 11:46:37;;;;;;;;;;;20.60;66.30;;;;;;484435;245;1167;-47
2021/07/23 11:48:39;;;;;;;;;;;20.60;66.30;;;;;;484641;245;878;-46
2021/07/23 11:50:40;;;;;;;;;;;20.60;66.30;;;;;;483981;245;1242;-47
2021/07/23 11:52:41;;;;;;;;;;;20.60;66.30;;;;;;484472;245;1088;-46
2021/07/23 11:54:42;;;;;;;;;;;20.60;66.20;;;;;;484540;245;876;-46
2021/07/23 11:56:44;;;;;;;;;;;20.60;66.20;;;;;;483933;245;1178;-47